sensor_id;sensor_type;location;lat;lon;timestamp;temperature;humidity
20512;DHT22;10414;52.074;5.126;2023-08-12T00:01:22;21.30;99.90
20512;DHT22;10414;52.074;5.126;2023-08-12T00:03:50;21.00;99.90
20512;DHT22;10414;52.074;5.126;2023-08-12T00:06:17;21.10;99.90
20512;DHT22;10414;52.074;5.126;2023-08-12T00:08:44;20.90;99.90
20512;DHT22;10414;52.074;5.126;2023-08-12T00:11:11;20.90;99.90
20512;DHT22;10414;52.074;5.126;2023-08-12T00:13:39;20.90;99.90
20512;DHT22;10414;52.074;5.126;2023-08-12T00:16:08;20.70;99.90
20512;DHT22;10414;52.074;5.126;2023-08-12T00:18:38;20.70;99.90
20512;DHT22;10414;52.074;5.126;2023-08-12T00:21:08;20.80;99.90
20512;DHT22;10414;52.074;5.126;2023-08-12T00:23:39;20.90;99.90
20512;DHT22;10414;52.074;5.126;2023-08-12T00:26:06;21.00;99.90
20512;DHT22;10414;52.074;5.126;2023-08-12T00:28:33;21.10;99.90
20512;DHT22;10414;52.074;5.126;2023-08-12T00:31:02;20.90;99.90
20512;DHT22;10414;52.074;5.126;2023-08-12T00:33:29;21.00;99.90
20512;DHT22;10414;52.074;5.126;2023-08-12T00:35:57;20.90;99.90
20512;DHT22;10414;52.074;5.126;2023-08-12T00:38:24;20.80;99.90
20512;DHT22;10414;52.074;5.126;2023-08-12T00:40:51;20.90;99.90
20512;DHT22;10414;52.074;5.126;2023-08-12T00:43:18;21.20;99.90
20512;DHT22;10414;52.074;5.126;2023-08-12T00:45:45;21.20;99.90
20512;DHT22;10414;52.074;5.126;2023-08-12T00:48:17;21.00;99.90
20512;DHT22;10414;52.074;5.126;2023-08-12T00:50:44;21.00;99.90
20512;DHT22;10414;52.074;5.126;2023-08-12T00:53:12;21.00;99.90
20512;DHT22;10414;52.074;5.126;2023-08-12T00:55:39;20.60;99.90
20512;DHT22;10414;52.074;5.126;2023-08-12T00:58:07;20.90;99.90
20512;DHT22;10414;52.074;5.126;2023-08-12T01:00:35;21.00;99.90
20512;DHT22;10414;52.074;5.126;2023-08-12T01:03:02;20.80;99.90
20512;DHT22;10414;52.074;5.126;2023-08-12T01:05:31;21.10;99.90
20512;DHT22;10414;52.074;5.126;2023-08-12T01:07:58;21.10;99.90
20512;DHT22;10414;52.074;5.126;2023-08-12T01:10:27;21.20;99.90
20512;DHT22;10414;52.074;5.126;2023-08-12T01:13:02;21.20;99.90
20512;DHT22;10414;52.074;5.126;2023-08-12T01:15:32;21.20;99.90
20512;DHT22;10414;52.074;5.126;2023-08-12T01:18:00;20.70;99.90
20512;DHT22;10414;52.074;5.126;2023-08-12T01:20:30;20.60;99.90
20512;DHT22;10414;52.074;5.126;2023-08-12T01:23:10;20.60;99.90
20512;DHT22;10414;52.074;5.126;2023-08-12T01:25:37;20.60;99.90
20512;DHT22;10414;52.074;5.126;2023-08-12T01:28:05;20.60;99.90
20512;DHT22;10414;52.074;5.126;2023-08-12T01:30:33;20.80;99.90
20512;DHT22;10414;52.074;5.126;2023-08-12T01:33:05;20.90;99.90
20512;DHT22;10414;52.074;5.126;2023-08-12T01:35:38;20.90;99.90
20512;DHT22;10414;52.074;5.126;2023-08-12T01:38:08;21.00;99.90
20512;DHT22;10414;52.074;5.126;2023-08-12T01:40:38;21.00;99.90
20512;DHT22;10414;52.074;5.126;2023-08-12T01:43:08;20.90;99.90
20512;DHT22;10414;52.074;5.126;2023-08-12T01:45:38;20.90;99.90
20512;DHT22;10414;52.074;5.126;2023-08-12T01:48:06;20.80;99.90
20512;DHT22;10414;52.074;5.126;2023-08-12T01:50:33;20.70;99.90
20512;DHT22;10414;52.074;5.126;2023-08-12T01:52:59;20.90;99.90
20512;DHT22;10414;52.074;5.126;2023-08-12T01:55:26;20.90;99.90
20512;DHT22;10414;52.074;5.126;2023-08-12T01:57:55;20.80;99.90
20512;DHT22;10414;52.074;5.126;2023-08-12T02:00:22;21.20;99.90
20512;DHT22;10414;52.074;5.126;2023-08-12T02:02:49;21.10;99.90
20512;DHT22;10414;52.074;5.126;2023-08-12T02:05:18;20.90;99.90
20512;DHT22;10414;52.074;5.126;2023-08-12T02:07:45;21.00;99.90
20512;DHT22;10414;52.074;5.126;2023-08-12T02:10:12;21.10;99.90
20512;DHT22;10414;52.074;5.126;2023-08-12T02:12:40;21.10;99.90
20512;DHT22;10414;52.074;5.126;2023-08-12T02:15:11;20.90;99.90
20512;DHT22;10414;52.074;5.126;2023-08-12T02:17:38;20.70;99.90
20512;DHT22;10414;52.074;5.126;2023-08-12T02:20:08;20.70;99.90
20512;DHT22;10414;52.074;5.126;2023-08-12T02:22:38;20.60;99.90
20512;DHT22;10414;52.074;5.126;2023-08-12T02:25:05;20.60;99.90
20512;DHT22;10414;52.074;5.126;2023-08-12T02:27:32;20.70;99.90
20512;DHT22;10414;52.074;5.126;2023-08-12T02:29:59;20.70;99.90
20512;DHT22;10414;52.074;5.126;2023-08-12T02:32:27;20.80;99.90
20512;DHT22;10414;52.074;5.126;2023-08-12T02:34:54;20.80;99.90
20512;DHT22;10414;52.074;5.126;2023-08-12T02:37:21;20.80;99.90
20512;DHT22;10414;52.074;5.126;2023-08-12T02:39:48;20.70;99.90
20512;DHT22;10414;52.074;5.126;2023-08-12T02:42:15;20.90;99.90
20512;DHT22;10414;52.074;5.126;2023-08-12T02:44:42;21.10;99.90
20512;DHT22;10414;52.074;5.126;2023-08-12T02:47:08;21.30;99.90
20512;DHT22;10414;52.074;5.126;2023-08-12T02:49:46;21.10;99.90
20512;DHT22;10414;52.074;5.126;2023-08-12T02:52:13;21.40;99.90
20512;DHT22;10414;52.074;5.126;2023-08-12T02:54:39;21.40;99.90
20512;DHT22;10414;52.074;5.126;2023-08-12T02:57:06;21.40;99.90
20512;DHT22;10414;52.074;5.126;2023-08-12T02:59:33;21.30;99.90
20512;DHT22;10414;52.074;5.126;2023-08-12T03:02:05;21.30;99.90
20512;DHT22;10414;52.074;5.126;2023-08-12T03:04:34;21.40;99.90
20512;DHT22;10414;52.074;5.126;2023-08-12T03:07:02;21.30;99.90
20512;DHT22;10414;52.074;5.126;2023-08-12T03:09:29;21.50;99.90
20512;DHT22;10414;52.074;5.126;2023-08-12T03:11:56;21.30;99.90
20512;DHT22;10414;52.074;5.126;2023-08-12T03:14:28;21.10;99.90
20512;DHT22;10414;52.074;5.126;2023-08-12T03:16:58;21.20;99.90
20512;DHT22;10414;52.074;5.126;2023-08-12T03:19:26;21.30;99.90
20512;DHT22;10414;52.074;5.126;2023-08-12T03:21:53;21.20;99.90
20512;DHT22;10414;52.074;5.126;2023-08-12T03:24:27;21.50;99.90
20512;DHT22;10414;52.074;5.126;2023-08-12T03:26:56;21.30;99.90
20512;DHT22;10414;52.074;5.126;2023-08-12T03:29:23;21.30;99.90
20512;DHT22;10414;52.074;5.126;2023-08-12T03:31:50;21.20;99.90
20512;DHT22;10414;52.074;5.126;2023-08-12T03:34:19;21.30;99.90
20512;DHT22;10414;52.074;5.126;2023-08-12T03:36:46;21.10;99.90
20512;DHT22;10414;52.074;5.126;2023-08-12T03:39:14;21.20;99.90
20512;DHT22;10414;52.074;5.126;2023-08-12T03:41:43;21.00;99.90
20512;DHT22;10414;52.074;5.126;2023-08-12T03:44:10;20.80;99.90
20512;DHT22;10414;52.074;5.126;2023-08-12T03:46:36;20.60;99.90
20512;DHT22;10414;52.074;5.126;2023-08-12T03:49:03;20.80;99.90
20512;DHT22;10414;52.074;5.126;2023-08-12T03:51:30;21.00;99.90
20512;DHT22;10414;52.074;5.126;2023-08-12T03:53:57;21.00;99.90
20512;DHT22;10414;52.074;5.126;2023-08-12T03:56:24;20.90;99.90
20512;DHT22;10414;52.074;5.126;2023-08-12T03:58:52;20.80;99.90
20512;DHT22;10414;52.074;5.126;2023-08-12T04:01:25;20.90;99.90
20512;DHT22;10414;52.074;5.126;2023-08-12T04:03:53;21.10;99.90
20512;DHT22;10414;52.074;5.126;2023-08-12T04:06:23;21.10;99.90
20512;DHT22;10414;52.074;5.126;2023-08-12T04:08:49;21.10;99.90
20512;DHT22;10414;52.074;5.126;2023-08-12T04:11:16;21.30;99.90
20512;DHT22;10414;52.074;5.126;2023-08-12T04:13:43;21.10;99.90
20512;DHT22;10414;52.074;5.126;2023-08-12T04:16:11;20.90;99.90
20512;DHT22;10414;52.074;5.126;2023-08-12T04:18:39;20.80;99.90
20512;DHT22;10414;52.074;5.126;2023-08-12T04:21:05;20.90;99.90
20512;DHT22;10414;52.074;5.126;2023-08-12T04:23:35;20.90;99.90
20512;DHT22;10414;52.074;5.126;2023-08-12T04:26:02;20.80;99.90
20512;DHT22;10414;52.074;5.126;2023-08-12T04:28:28;20.80;99.90
20512;DHT22;10414;52.074;5.126;2023-08-12T04:30:55;20.90;99.90
20512;DHT22;10414;52.074;5.126;2023-08-12T04:33:24;21.10;99.90
20512;DHT22;10414;52.074;5.126;2023-08-12T04:35:52;21.20;99.90
20512;DHT22;10414;52.074;5.126;2023-08-12T04:38:22;21.00;99.90
20512;DHT22;10414;52.074;5.126;2023-08-12T04:40:49;21.20;99.90
20512;DHT22;10414;52.074;5.126;2023-08-12T04:43:20;21.00;99.90
20512;DHT22;10414;52.074;5.126;2023-08-12T04:45:48;21.10;99.90
20512;DHT22;10414;52.074;5.126;2023-08-12T04:48:15;21.30;99.90
20512;DHT22;10414;52.074;5.126;2023-08-12T04:50:48;21.20;99.90
20512;DHT22;10414;52.074;5.126;2023-08-12T04:53:15;21.40;99.90
20512;DHT22;10414;52.074;5.126;2023-08-12T04:55:42;21.30;99.90
20512;DHT22;10414;52.074;5.126;2023-08-12T04:58:08;21.40;99.90
20512;DHT22;10414;52.074;5.126;2023-08-12T05:00:35;21.40;99.90
20512;DHT22;10414;52.074;5.126;2023-08-12T05:03:03;21.40;99.90
20512;DHT22;10414;52.074;5.126;2023-08-12T05:05:30;21.40;99.90
20512;DHT22;10414;52.074;5.126;2023-08-12T05:08:00;21.30;99.90
20512;DHT22;10414;52.074;5.126;2023-08-12T05:10:26;21.20;99.90
20512;DHT22;10414;52.074;5.126;2023-08-12T05:12:53;20.90;99.90
20512;DHT22;10414;52.074;5.126;2023-08-12T05:15:23;21.00;99.90
20512;DHT22;10414;52.074;5.126;2023-08-12T05:17:52;21.00;99.90
20512;DHT22;10414;52.074;5.126;2023-08-12T05:20:19;21.10;99.90
20512;DHT22;10414;52.074;5.126;2023-08-12T05:22:48;21.00;99.90
20512;DHT22;10414;52.074;5.126;2023-08-12T05:25:18;21.30;99.90
20512;DHT22;10414;52.074;5.126;2023-08-12T05:27:50;21.20;99.90
20512;DHT22;10414;52.074;5.126;2023-08-12T05:30:17;21.10;99.90
20512;DHT22;10414;52.074;5.126;2023-08-12T05:32:43;21.00;99.90
20512;DHT22;10414;52.074;5.126;2023-08-12T05:35:10;20.80;99.90
20512;DHT22;10414;52.074;5.126;2023-08-12T05:37:37;20.90;99.90
20512;DHT22;10414;52.074;5.126;2023-08-12T05:40:05;21.00;99.90
20512;DHT22;10414;52.074;5.126;2023-08-12T05:42:35;21.00;99.90
20512;DHT22;10414;52.074;5.126;2023-08-12T05:45:02;21.00;99.90
20512;DHT22;10414;52.074;5.126;2023-08-12T05:47:29;21.10;99.90
20512;DHT22;10414;52.074;5.126;2023-08-12T05:49:58;20.90;99.90
20512;DHT22;10414;52.074;5.126;2023-08-12T05:52:27;21.10;99.90
20512;DHT22;10414;52.074;5.126;2023-08-12T05:54:56;21.30;99.90
20512;DHT22;10414;52.074;5.126;2023-08-12T05:57:23;21.00;99.90
20512;DHT22;10414;52.074;5.126;2023-08-12T05:59:51;21.00;99.90
20512;DHT22;10414;52.074;5.126;2023-08-12T06:02:20;21.00;99.90
20512;DHT22;10414;52.074;5.126;2023-08-12T06:04:47;21.00;99.90
20512;DHT22;10414;52.074;5.126;2023-08-12T06:07:14;20.90;99.90
20512;DHT22;10414;52.074;5.126;2023-08-12T06:09:41;20.90;99.90
20512;DHT22;10414;52.074;5.126;2023-08-12T06:12:08;20.70;99.90
20512;DHT22;10414;52.074;5.126;2023-08-12T06:14:37;20.60;99.90
20512;DHT22;10414;52.074;5.126;2023-08-12T06:17:05;20.60;99.90
20512;DHT22;10414;52.074;5.126;2023-08-12T06:19:34;20.70;99.90
20512;DHT22;10414;52.074;5.126;2023-08-12T06:22:01;20.70;99.90
20512;DHT22;10414;52.074;5.126;2023-08-12T06:24:30;20.40;99.90
20512;DHT22;10414;52.074;5.126;2023-08-12T06:26:57;20.30;99.90
20512;DHT22;10414;52.074;5.126;2023-08-12T06:29:25;20.20;99.90
20512;DHT22;10414;52.074;5.126;2023-08-12T06:31:52;20.20;99.90
20512;DHT22;10414;52.074;5.126;2023-08-12T06:34:20;20.10;99.90
20512;DHT22;10414;52.074;5.126;2023-08-12T06:36:50;20.30;99.90
20512;DHT22;10414;52.074;5.126;2023-08-12T06:39:17;20.00;99.90
20512;DHT22;10414;52.074;5.126;2023-08-12T06:41:43;20.00;99.90
20512;DHT22;10414;52.074;5.126;2023-08-12T06:44:10;20.10;99.90
20512;DHT22;10414;52.074;5.126;2023-08-12T06:46:43;20.10;99.90
20512;DHT22;10414;52.074;5.126;2023-08-12T06:49:10;20.20;99.90
20512;DHT22;10414;52.074;5.126;2023-08-12T06:51:38;20.10;99.90
20512;DHT22;10414;52.074;5.126;2023-08-12T06:54:05;20.20;99.90
20512;DHT22;10414;52.074;5.126;2023-08-12T06:56:32;20.10;99.90
20512;DHT22;10414;52.074;5.126;2023-08-12T06:58:59;20.20;99.90
20512;DHT22;10414;52.074;5.126;2023-08-12T07:01:25;20.30;99.90
20512;DHT22;10414;52.074;5.126;2023-08-12T07:03:55;20.30;99.90
20512;DHT22;10414;52.074;5.126;2023-08-12T07:06:24;20.30;99.90
20512;DHT22;10414;52.074;5.126;2023-08-12T07:08:53;20.40;99.90
20512;DHT22;10414;52.074;5.126;2023-08-12T07:11:21;20.40;99.90
20512;DHT22;10414;52.074;5.126;2023-08-12T07:13:48;20.50;99.90
20512;DHT22;10414;52.074;5.126;2023-08-12T07:16:19;20.80;99.90
20512;DHT22;10414;52.074;5.126;2023-08-12T07:18:49;20.70;99.90
20512;DHT22;10414;52.074;5.126;2023-08-12T07:21:18;20.70;99.90
20512;DHT22;10414;52.074;5.126;2023-08-12T07:23:45;20.90;99.90
20512;DHT22;10414;52.074;5.126;2023-08-12T07:26:13;21.10;99.90
20512;DHT22;10414;52.074;5.126;2023-08-12T07:28:45;20.90;99.90
20512;DHT22;10414;52.074;5.126;2023-08-12T07:31:12;20.90;99.90
20512;DHT22;10414;52.074;5.126;2023-08-12T07:33:41;21.10;99.90
20512;DHT22;10414;52.074;5.126;2023-08-12T07:36:08;21.10;99.90
20512;DHT22;10414;52.074;5.126;2023-08-12T07:38:35;21.20;99.90
20512;DHT22;10414;52.074;5.126;2023-08-12T07:41:03;21.10;99.90
20512;DHT22;10414;52.074;5.126;2023-08-12T07:43:34;21.40;99.90
20512;DHT22;10414;52.074;5.126;2023-08-12T07:46:04;21.30;99.90
20512;DHT22;10414;52.074;5.126;2023-08-12T07:48:31;21.40;99.90
20512;DHT22;10414;52.074;5.126;2023-08-12T07:50:58;21.20;99.90
20512;DHT22;10414;52.074;5.126;2023-08-12T07:53:25;21.20;99.90
20512;DHT22;10414;52.074;5.126;2023-08-12T07:55:52;21.20;99.90
20512;DHT22;10414;52.074;5.126;2023-08-12T07:58:19;21.20;99.90
20512;DHT22;10414;52.074;5.126;2023-08-12T08:00:53;21.20;99.90
20512;DHT22;10414;52.074;5.126;2023-08-12T08:03:28;21.30;99.90
20512;DHT22;10414;52.074;5.126;2023-08-12T08:05:57;21.80;99.90
20512;DHT22;10414;52.074;5.126;2023-08-12T08:08:27;21.80;99.90
20512;DHT22;10414;52.074;5.126;2023-08-12T08:10:54;21.70;99.90
20512;DHT22;10414;52.074;5.126;2023-08-12T08:13:21;21.40;99.90
20512;DHT22;10414;52.074;5.126;2023-08-12T08:15:55;21.50;99.90
20512;DHT22;10414;52.074;5.126;2023-08-12T08:18:22;21.50;99.90
20512;DHT22;10414;52.074;5.126;2023-08-12T08:20:49;21.30;99.90
20512;DHT22;10414;52.074;5.126;2023-08-12T08:23:16;21.30;99.90
20512;DHT22;10414;52.074;5.126;2023-08-12T08:25:43;21.40;99.90
20512;DHT22;10414;52.074;5.126;2023-08-12T08:28:11;21.40;99.90
20512;DHT22;10414;52.074;5.126;2023-08-12T08:30:38;21.30;99.90
20512;DHT22;10414;52.074;5.126;2023-08-12T08:33:06;21.00;99.90
20512;DHT22;10414;52.074;5.126;2023-08-12T08:35:33;20.50;99.90
20512;DHT22;10414;52.074;5.126;2023-08-12T08:38:03;20.30;99.90
20512;DHT22;10414;52.074;5.126;2023-08-12T08:40:30;19.80;99.90
20512;DHT22;10414;52.074;5.126;2023-08-12T08:43:01;19.30;99.90
20512;DHT22;10414;52.074;5.126;2023-08-12T08:45:32;19.10;99.90
20512;DHT22;10414;52.074;5.126;2023-08-12T08:47:59;19.00;99.90
20512;DHT22;10414;52.074;5.126;2023-08-12T08:50:28;19.00;99.90
20512;DHT22;10414;52.074;5.126;2023-08-12T08:52:59;19.00;99.90
20512;DHT22;10414;52.074;5.126;2023-08-12T08:55:27;19.20;99.90
20512;DHT22;10414;52.074;5.126;2023-08-12T08:57:55;19.60;99.90
20512;DHT22;10414;52.074;5.126;2023-08-12T09:00:25;19.70;99.90
20512;DHT22;10414;52.074;5.126;2023-08-12T09:02:53;19.90;99.90
20512;DHT22;10414;52.074;5.126;2023-08-12T09:05:21;20.40;99.90
20512;DHT22;10414;52.074;5.126;2023-08-12T09:07:50;20.60;99.90
20512;DHT22;10414;52.074;5.126;2023-08-12T09:10:18;20.90;99.90
20512;DHT22;10414;52.074;5.126;2023-08-12T09:12:47;20.80;99.90
20512;DHT22;10414;52.074;5.126;2023-08-12T09:15:16;20.90;99.90
20512;DHT22;10414;52.074;5.126;2023-08-12T09:17:43;20.60;99.90
20512;DHT22;10414;52.074;5.126;2023-08-12T09:20:10;20.70;99.90
20512;DHT22;10414;52.074;5.126;2023-08-12T09:22:37;21.00;99.90
20512;DHT22;10414;52.074;5.126;2023-08-12T09:25:07;20.90;99.90
20512;DHT22;10414;52.074;5.126;2023-08-12T09:27:36;21.30;99.90
20512;DHT22;10414;52.074;5.126;2023-08-12T09:30:03;21.60;99.90
20512;DHT22;10414;52.074;5.126;2023-08-12T09:32:31;22.10;99.90
20512;DHT22;10414;52.074;5.126;2023-08-12T09:34:59;22.90;99.90
20512;DHT22;10414;52.074;5.126;2023-08-12T09:37:28;23.00;99.90
20512;DHT22;10414;52.074;5.126;2023-08-12T09:39:56;22.80;99.90
20512;DHT22;10414;52.074;5.126;2023-08-12T09:42:25;23.50;99.90
20512;DHT22;10414;52.074;5.126;2023-08-12T09:44:51;24.10;99.90
20512;DHT22;10414;52.074;5.126;2023-08-12T09:47:18;24.20;99.90
20512;DHT22;10414;52.074;5.126;2023-08-12T09:49:45;23.80;99.90
20512;DHT22;10414;52.074;5.126;2023-08-12T09:52:12;24.30;99.90
20512;DHT22;10414;52.074;5.126;2023-08-12T09:54:39;25.10;99.90
20512;DHT22;10414;52.074;5.126;2023-08-12T09:57:09;24.80;99.90
20512;DHT22;10414;52.074;5.126;2023-08-12T09:59:40;25.30;99.90
20512;DHT22;10414;52.074;5.126;2023-08-12T10:02:14;26.00;99.90
20512;DHT22;10414;52.074;5.126;2023-08-12T10:04:45;27.30;99.90
20512;DHT22;10414;52.074;5.126;2023-08-12T10:07:14;28.80;99.90
20512;DHT22;10414;52.074;5.126;2023-08-12T10:09:41;29.60;99.90
20512;DHT22;10414;52.074;5.126;2023-08-12T10:12:10;30.50;99.90
20512;DHT22;10414;52.074;5.126;2023-08-12T10:14:38;31.50;99.90
20512;DHT22;10414;52.074;5.126;2023-08-12T10:17:08;30.80;99.90
20512;DHT22;10414;52.074;5.126;2023-08-12T10:19:36;29.80;99.90
20512;DHT22;10414;52.074;5.126;2023-08-12T10:22:03;29.90;99.90
20512;DHT22;10414;52.074;5.126;2023-08-12T10:24:34;31.00;99.90
20512;DHT22;10414;52.074;5.126;2023-08-12T10:27:01;31.10;99.90
20512;DHT22;10414;52.074;5.126;2023-08-12T10:29:29;32.80;99.90
20512;DHT22;10414;52.074;5.126;2023-08-12T10:31:58;31.50;99.90
20512;DHT22;10414;52.074;5.126;2023-08-12T10:34:26;29.30;99.90
20512;DHT22;10414;52.074;5.126;2023-08-12T10:36:54;29.50;99.90
20512;DHT22;10414;52.074;5.126;2023-08-12T10:39:24;30.10;99.90
20512;DHT22;10414;52.074;5.126;2023-08-12T10:41:54;30.20;99.90
20512;DHT22;10414;52.074;5.126;2023-08-12T10:44:27;30.00;99.90
20512;DHT22;10414;52.074;5.126;2023-08-12T10:46:54;30.00;99.90
20512;DHT22;10414;52.074;5.126;2023-08-12T10:49:22;30.10;99.90
20512;DHT22;10414;52.074;5.126;2023-08-12T10:51:50;29.70;99.90
20512;DHT22;10414;52.074;5.126;2023-08-12T10:54:20;29.80;99.90
20512;DHT22;10414;52.074;5.126;2023-08-12T10:57:06;29.80;99.90
20512;DHT22;10414;52.074;5.126;2023-08-12T10:59:54;30.00;99.90
20512;DHT22;10414;52.074;5.126;2023-08-12T11:02:25;29.90;99.90
20512;DHT22;10414;52.074;5.126;2023-08-12T11:04:55;31.40;99.90
20512;DHT22;10414;52.074;5.126;2023-08-12T11:07:32;31.60;99.90
20512;DHT22;10414;52.074;5.126;2023-08-12T11:10:04;31.20;99.90
20512;DHT22;10414;52.074;5.126;2023-08-12T11:12:33;29.90;99.90
20512;DHT22;10414;52.074;5.126;2023-08-12T11:15:01;28.20;99.90
20512;DHT22;10414;52.074;5.126;2023-08-12T11:17:33;28.80;99.90
20512;DHT22;10414;52.074;5.126;2023-08-12T11:20:03;29.50;99.90
20512;DHT22;10414;52.074;5.126;2023-08-12T11:22:31;29.50;99.90
20512;DHT22;10414;52.074;5.126;2023-08-12T11:25:02;29.10;99.90
20512;DHT22;10414;52.074;5.126;2023-08-12T11:27:41;29.50;99.90
20512;DHT22;10414;52.074;5.126;2023-08-12T11:30:09;29.50;99.90
20512;DHT22;10414;52.074;5.126;2023-08-12T11:32:37;29.10;99.90
20512;DHT22;10414;52.074;5.126;2023-08-12T11:35:07;28.30;99.90
20512;DHT22;10414;52.074;5.126;2023-08-12T11:37:40;27.90;99.90
20512;DHT22;10414;52.074;5.126;2023-08-12T11:40:08;27.80;99.90
20512;DHT22;10414;52.074;5.126;2023-08-12T11:42:35;28.30;99.90
20512;DHT22;10414;52.074;5.126;2023-08-12T11:45:03;29.60;99.90
20512;DHT22;10414;52.074;5.126;2023-08-12T11:47:30;28.30;99.90
20512;DHT22;10414;52.074;5.126;2023-08-12T11:49:58;28.10;99.90
20512;DHT22;10414;52.074;5.126;2023-08-12T11:52:29;28.40;99.90
20512;DHT22;10414;52.074;5.126;2023-08-12T11:54:57;28.50;99.90
20512;DHT22;10414;52.074;5.126;2023-08-12T11:57:24;28.00;99.90
20512;DHT22;10414;52.074;5.126;2023-08-12T11:59:51;28.00;99.90
20512;DHT22;10414;52.074;5.126;2023-08-12T12:02:19;27.60;99.90
20512;DHT22;10414;52.074;5.126;2023-08-12T12:04:46;27.40;99.90
20512;DHT22;10414;52.074;5.126;2023-08-12T12:07:22;26.90;99.90
20512;DHT22;10414;52.074;5.126;2023-08-12T12:09:52;26.30;99.90
20512;DHT22;10414;52.074;5.126;2023-08-12T12:12:22;26.00;99.90
20512;DHT22;10414;52.074;5.126;2023-08-12T12:14:51;25.90;99.90
20512;DHT22;10414;52.074;5.126;2023-08-12T12:17:18;26.20;99.90
20512;DHT22;10414;52.074;5.126;2023-08-12T12:19:47;25.50;99.90
20512;DHT22;10414;52.074;5.126;2023-08-12T12:22:16;25.60;99.90
20512;DHT22;10414;52.074;5.126;2023-08-12T12:24:46;25.70;99.90
20512;DHT22;10414;52.074;5.126;2023-08-12T12:27:17;25.70;99.90
20512;DHT22;10414;52.074;5.126;2023-08-12T12:29:43;25.60;99.90
20512;DHT22;10414;52.074;5.126;2023-08-12T12:32:12;25.60;99.90
20512;DHT22;10414;52.074;5.126;2023-08-12T12:34:39;25.90;99.90
20512;DHT22;10414;52.074;5.126;2023-08-12T12:37:06;25.70;99.90
20512;DHT22;10414;52.074;5.126;2023-08-12T12:39:33;26.10;99.90
20512;DHT22;10414;52.074;5.126;2023-08-12T12:42:00;25.90;99.90
20512;DHT22;10414;52.074;5.126;2023-08-12T12:44:28;26.10;99.90
20512;DHT22;10414;52.074;5.126;2023-08-12T12:46:55;26.10;99.90
20512;DHT22;10414;52.074;5.126;2023-08-12T12:49:22;25.90;99.90
20512;DHT22;10414;52.074;5.126;2023-08-12T12:51:49;25.90;99.90
20512;DHT22;10414;52.074;5.126;2023-08-12T12:54:20;25.90;99.90
20512;DHT22;10414;52.074;5.126;2023-08-12T12:56:47;25.80;99.90
20512;DHT22;10414;52.074;5.126;2023-08-12T12:59:14;25.70;99.90
20512;DHT22;10414;52.074;5.126;2023-08-12T13:01:42;25.80;99.90
20512;DHT22;10414;52.074;5.126;2023-08-12T13:04:09;25.60;99.90
20512;DHT22;10414;52.074;5.126;2023-08-12T13:06:36;25.40;99.90
20512;DHT22;10414;52.074;5.126;2023-08-12T13:09:03;25.60;99.90
20512;DHT22;10414;52.074;5.126;2023-08-12T13:11:35;26.10;99.90
20512;DHT22;10414;52.074;5.126;2023-08-12T13:14:02;25.90;99.90
20512;DHT22;10414;52.074;5.126;2023-08-12T13:16:30;25.60;99.90
20512;DHT22;10414;52.074;5.126;2023-08-12T13:19:01;25.50;99.90
20512;DHT22;10414;52.074;5.126;2023-08-12T13:21:30;25.50;99.90
20512;DHT22;10414;52.074;5.126;2023-08-12T13:24:03;25.30;99.90
20512;DHT22;10414;52.074;5.126;2023-08-12T13:26:30;25.50;99.90
20512;DHT22;10414;52.074;5.126;2023-08-12T13:28:57;25.60;99.90
20512;DHT22;10414;52.074;5.126;2023-08-12T13:31:26;25.90;99.90
20512;DHT22;10414;52.074;5.126;2023-08-12T13:33:53;25.90;99.90
20512;DHT22;10414;52.074;5.126;2023-08-12T13:36:22;25.90;99.90
20512;DHT22;10414;52.074;5.126;2023-08-12T13:38:51;25.50;99.90
20512;DHT22;10414;52.074;5.126;2023-08-12T13:41:18;25.70;99.90
20512;DHT22;10414;52.074;5.126;2023-08-12T13:43:47;25.60;99.90
20512;DHT22;10414;52.074;5.126;2023-08-12T13:46:15;25.90;99.90
20512;DHT22;10414;52.074;5.126;2023-08-12T13:48:41;25.80;99.90
20512;DHT22;10414;52.074;5.126;2023-08-12T13:51:09;25.90;99.90
20512;DHT22;10414;52.074;5.126;2023-08-12T13:53:37;25.80;99.90
20512;DHT22;10414;52.074;5.126;2023-08-12T13:56:07;25.50;99.90
20512;DHT22;10414;52.074;5.126;2023-08-12T13:58:33;25.50;99.90
20512;DHT22;10414;52.074;5.126;2023-08-12T14:01:00;25.80;99.90
20512;DHT22;10414;52.074;5.126;2023-08-12T14:03:27;26.00;99.90
20512;DHT22;10414;52.074;5.126;2023-08-12T14:05:54;26.00;99.90
20512;DHT22;10414;52.074;5.126;2023-08-12T14:08:21;25.70;99.90
20512;DHT22;10414;52.074;5.126;2023-08-12T14:10:49;25.40;99.90
20512;DHT22;10414;52.074;5.126;2023-08-12T14:13:18;25.30;99.90
20512;DHT22;10414;52.074;5.126;2023-08-12T14:15:45;25.30;99.90
20512;DHT22;10414;52.074;5.126;2023-08-12T14:18:12;25.10;99.90
20512;DHT22;10414;52.074;5.126;2023-08-12T14:20:39;25.20;99.90
20512;DHT22;10414;52.074;5.126;2023-08-12T14:23:05;25.50;99.90
20512;DHT22;10414;52.074;5.126;2023-08-12T14:25:34;25.40;99.90
20512;DHT22;10414;52.074;5.126;2023-08-12T14:28:02;25.10;99.90
20512;DHT22;10414;52.074;5.126;2023-08-12T14:30:31;25.30;99.90
20512;DHT22;10414;52.074;5.126;2023-08-12T14:32:58;25.30;99.90
20512;DHT22;10414;52.074;5.126;2023-08-12T14:35:25;25.30;99.90
20512;DHT22;10414;52.074;5.126;2023-08-12T14:37:52;25.00;99.90
20512;DHT22;10414;52.074;5.126;2023-08-12T14:40:19;24.90;99.90
20512;DHT22;10414;52.074;5.126;2023-08-12T14:42:46;25.00;99.90
20512;DHT22;10414;52.074;5.126;2023-08-12T14:45:14;24.80;99.90
20512;DHT22;10414;52.074;5.126;2023-08-12T14:47:41;24.90;99.90
20512;DHT22;10414;52.074;5.126;2023-08-12T14:50:08;25.10;99.90
20512;DHT22;10414;52.074;5.126;2023-08-12T14:52:50;25.40;99.90
20512;DHT22;10414;52.074;5.126;2023-08-12T14:55:17;25.20;99.90
20512;DHT22;10414;52.074;5.126;2023-08-12T14:57:44;25.40;99.90
20512;DHT22;10414;52.074;5.126;2023-08-12T15:00:12;25.50;99.90
20512;DHT22;10414;52.074;5.126;2023-08-12T15:02:44;25.40;99.90
20512;DHT22;10414;52.074;5.126;2023-08-12T15:05:11;25.30;99.90
20512;DHT22;10414;52.074;5.126;2023-08-12T15:07:40;25.50;99.90
20512;DHT22;10414;52.074;5.126;2023-08-12T15:10:10;25.30;99.90
20512;DHT22;10414;52.074;5.126;2023-08-12T15:12:37;25.00;99.90
20512;DHT22;10414;52.074;5.126;2023-08-12T15:15:04;24.80;99.90
20512;DHT22;10414;52.074;5.126;2023-08-12T15:17:33;24.80;99.90
20512;DHT22;10414;52.074;5.126;2023-08-12T15:20:01;24.70;99.90
20512;DHT22;10414;52.074;5.126;2023-08-12T15:22:31;24.50;99.90
20512;DHT22;10414;52.074;5.126;2023-08-12T15:25:00;24.40;99.90
20512;DHT22;10414;52.074;5.126;2023-08-12T15:27:29;24.20;99.90
20512;DHT22;10414;52.074;5.126;2023-08-12T15:29:56;24.00;99.90
20512;DHT22;10414;52.074;5.126;2023-08-12T15:32:24;24.20;99.90
20512;DHT22;10414;52.074;5.126;2023-08-12T15:34:54;24.10;99.90
20512;DHT22;10414;52.074;5.126;2023-08-12T15:37:22;23.90;99.90